Time;durP1;ratioP1;P1;durP2;ratioP2;P2;SDS_P1;SDS_P2;PMS_P1;PMS_P2;Temp;Humidity;BMP_temperature;BMP_pressure;BME280_temperature;BME280_humidity;BME280_pressure;Samples;Min_cycle;Max_cycle;Signal;HPM_P1;HPM_P2
2024/02/22 00:10:30;;;;;;;;;;;;;;;6.36;86.61;99238.28;5668431;23;20030;31
2024/02/22 00:13:57;;;;;;;10.85;4.57;;;;;;;5.89;86.73;99152.09;4883830;29;19924;-96
2024/02/22 00:44:04;;;;;;;19.38;6.63;;;;;;;5.81;91.61;99144.19;1643511;23;20327;-96
2024/02/22 00:52:51;;;;;;;;;;;;;;;;;;;;;
2024/02/22 01:03:25;;;;;;;9.32;4.07;;;;;;;5.68;92.49;99132.81;4776293;30;20038;-96
2024/02/22 01:09:41;;;;;;;7.10;3.92;;;;;;;6.03;96.31;99195.22;4775256;30;20039;-95
2024/02/22 01:29:15;;;;;;;8.00;3.03;;;;;;;5.42;100.00;99106.44;5097112;23;20056;-96
2024/02/22 01:32:01;;;;;;;5.80;2.58;;;;;;;5.88;100.00;99182.03;4822590;29;20042;-95
2024/02/22 01:35:27;;;;;;;9.18;3.40;;;;;;;5.37;100.00;99087.09;4830622;29;20043;-96
2024/02/22 01:38:30;;;;;;;6.22;2.58;;;;;;;5.38;100.00;99101.16;4821797;29;20054;-96
2024/02/22 02:40:39;;;;;;;;;;;;;;;;;;;;;
2024/02/22 03:16:56;;;;;;;8.32;3.22;;;;;;;5.56;100.00;99009.69;4849462;29;20046;-95
2024/02/22 03:19:32;;;;;;;5.97;3.28;;;;;;;5.90;100.00;99069.41;4852755;29;20049;-94
2024/02/22 03:22:57;;;;;;;;;;;;;;;;;;;;;
2024/02/22 03:29:49;;;;;;;;;;;;;;;;;;;;;
2024/02/22 03:33:53;;;;;;;;;;;;;;;;;;;;;
2024/02/22 04:16:58;;;;;;;8.35;3.58;;;;;;;6.07;100.00;98961.13;4673179;30;20053;-96
2024/02/22 05:25:29;;;;;;;10.75;4.03;;;;;;;6.23;100.00;99027.94;4967525;23;20309;-95
2024/02/22 05:32:58;;;;;;;11.43;3.97;;;;;;;5.90;100.00;99029.81;4726819;30;20088;-96
2024/02/22 05:47:51;;;;;;;;;;;;;;;;;;;;;
2024/02/22 05:50:45;;;;;;;9.30;3.30;;;;;;;5.22;100.00;98940.34;4641906;30;20101;-95
2024/02/22 05:53:31;;;;;;;;;;;;;;;;;;;;;
2024/02/22 06:12:14;;;;;;;;;;;;;;;;;;;;;
2024/02/22 06:26:56;;;;;;;7.55;3.10;;;;;;;5.37;100.00;98978.97;4885227;29;20056;-93
2024/02/22 06:29:33;;;;;;;7.80;3.25;;;;;;;5.34;100.00;98961.41;4885451;29;20049;-95
2024/02/22 06:32:05;;;;;;;9.43;4.15;;;;;;;5.42;100.00;98945.56;4884997;29;20057;-96
2024/02/22 06:34:32;;;;;;;11.02;3.95;;;;;;;5.43;100.00;98941.16;4885414;29;20049;-96
2024/02/22 06:36:59;;;;;;;6.97;3.67;;;;;;;5.87;100.00;99017.50;4883190;29;20140;-94
2024/02/22 06:40:01;;;;;;;10.15;3.88;;;;;;;5.93;100.00;99000.75;4882896;29;20081;-96
2024/02/22 06:43:01;;;;;;;7.88;3.05;;;;;;;5.75;100.00;98939.28;4848127;29;20049;-95
2024/02/22 06:45:45;;;;;;;7.30;3.78;;;;;;;6.10;100.00;99011.28;4857440;29;20060;-95
2024/02/22 06:48:12;;;;;;;7.05;3.80;;;;;;;6.11;100.00;99003.31;4899837;29;20055;-94
2024/02/22 06:50:39;;;;;;;8.48;3.53;;;;;;;6.12;100.00;98996.31;4893515;29;20045;-95
2024/02/22 06:53:06;;;;;;;6.40;3.85;;;;;;;5.92;100.00;98951.47;4889194;29;20071;-96
2024/02/22 06:55:33;;;;;;;7.13;3.47;;;;;;;6.17;100.00;99005.06;4886441;29;20121;-95
2024/02/22 06:58:04;;;;;;;11.93;4.82;;;;;;;6.24;100.00;98993.56;4883607;29;20053;-95
2024/02/22 07:00:34;;;;;;;6.78;3.50;;;;;;;6.32;100.00;98993.53;4881076;29;20438;-94
2024/02/22 07:03:03;;;;;;;9.50;4.20;;;;;;;5.96;100.00;98926.84;4880486;29;20073;-95
2024/02/22 07:05:29;;;;;;;9.80;4.13;;;;;;;6.41;100.00;98988.19;4880698;29;20087;-96
2024/02/22 07:07:58;;;;;;;9.48;4.35;;;;;;;6.06;100.00;98918.00;4880508;29;20044;-96
2024/02/22 07:10:27;;;;;;;8.23;3.92;;;;;;;6.55;100.00;98985.47;4881702;29;20072;-96
2024/02/22 07:12:57;;;;;;;6.18;4.07;;;;;;;6.65;100.00;98994.19;4881067;29;20056;-95
2024/02/22 07:15:24;;;;;;;8.80;4.63;;;;;;;6.78;100.00;98988.78;4880690;29;20084;-95
2024/02/22 07:17:51;;;;;;;16.83;8.15;;;;;;;6.81;100.00;98985.25;4880485;29;20152;-95
2024/02/22 07:20:17;;;;;;;17.60;8.32;;;;;;;6.98;100.00;98996.56;4883750;29;20045;-95
2024/02/22 07:22:52;;;;;;;15.95;8.20;;;;;;;7.14;100.00;98985.84;4882492;29;20041;-94
2024/02/22 07:25:21;;;;;;;18.77;7.80;;;;;;;7.12;100.00;98958.53;4882884;29;20061;-96
2024/02/22 07:27:50;;;;;;;14.25;7.65;;;;;;;7.34;100.00;98983.84;4899718;29;20045;-96
2024/02/22 07:30:16;;;;;;;10.88;6.30;;;;;;;7.44;100.00;98976.72;4903443;29;20104;-96
2024/02/22 07:32:45;;;;;;;8.65;5.07;;;;;;;7.10;100.00;98895.06;4903222;29;20048;-96
2024/02/22 07:35:13;;;;;;;8.88;4.63;;;;;;;7.27;100.00;98908.13;4903028;29;20025;-96
2024/02/22 07:37:39;;;;;;;7.85;4.07;;;;;;;7.57;100.00;98927.16;4891753;29;20131;-95
2024/02/22 07:40:07;;;;;;;9.23;4.53;;;;;;;7.64;100.00;98947.34;4881344;29;20049;-96
2024/02/22 07:42:34;;;;;;;8.73;4.90;;;;;;;7.84;100.00;98962.13;4880310;29;20072;-96
2024/02/22 07:45:04;;;;;;;10.23;4.85;;;;;;;7.61;100.00;98887.41;4880607;29;20056;-96
2024/02/22 07:47:30;;;;;;;11.52;4.68;;;;;;;8.10;100.00;98945.88;4881115;29;20053;-96
2024/02/22 07:49:57;;;;;;;10.32;5.07;;;;;;;7.90;100.00;98877.31;4880477;29;20052;-96
2024/02/22 07:52:23;;;;;;;8.43;4.93;;;;;;;8.06;100.00;98892.06;4883496;29;20481;-96
2024/02/22 07:54:52;;;;;;;13.70;5.35;;;;;;;8.54;100.00;98942.56;4880865;29;20116;-96
2024/02/22 07:57:19;;;;;;;9.10;4.32;;;;;;;8.22;97.06;98890.94;4886294;29;20051;-96
2024/02/22 07:59:46;;;;;;;11.00;4.25;;;;;;;8.59;95.93;98948.69;4881826;29;20073;-96
2024/02/22 08:02:28;;;;;;;12.38;4.40;;;;;;;8.63;94.64;98937.13;4883952;29;20520;-96
2024/02/22 08:04:54;;;;;;;8.52;4.47;;;;;;;8.60;93.22;98908.00;4882532;29;20045;-94
2024/02/22 08:07:22;;;;;;;7.13;4.07;;;;;;;8.90;91.23;98947.28;4884409;29;20041;-94
2024/02/22 08:09:48;;;;;;;8.02;4.07;;;;;;;8.79;92.76;98950.13;4883343;29;20139;-94
2024/02/22 08:12:14;;;;;;;9.00;4.10;;;;;;;8.76;88.93;98945.75;4884454;29;20141;-94
2024/02/22 08:14:41;;;;;;;8.63;4.10;;;;;;;8.67;91.29;98951.19;4887553;29;20059;-95
2024/02/22 08:17:06;;;;;;;8.57;4.28;;;;;;;8.84;90.26;98958.88;4883859;29;20049;-96
2024/02/22 08:19:32;;;;;;;8.65;4.95;;;;;;;9.25;88.86;98958.13;4883914;29;20060;-95
2024/02/22 08:21:58;;;;;;;9.13;4.55;;;;;;;9.61;86.59;98941.53;4884837;29;20045;-96
2024/02/22 08:24:26;;;;;;;11.63;5.43;;;;;;;9.99;83.15;98940.69;4884966;29;20065;-95
2024/02/22 08:26:52;;;;;;;9.60;5.22;;;;;;;10.01;83.17;98914.97;4884595;29;20077;-94
2024/02/22 08:29:18;;;;;;;10.70;4.93;;;;;;;10.22;82.87;98945.50;4888680;29;20041;-96
2024/02/22 08:31:48;;;;;;;11.82;5.88;;;;;;;10.11;82.28;98898.84;4886241;29;20045;-95
2024/02/22 08:34:14;;;;;;;11.85;5.28;;;;;;;10.24;83.39;98898.50;4887077;29;20117;-94
2024/02/22 08:36:40;;;;;;;10.30;4.93;;;;;;;10.44;82.05;98884.75;4885088;29;20061;-95
2024/02/22 08:39:06;;;;;;;8.93;4.95;;;;;;;10.87;81.04;98958.16;4884396;29;20045;-94
2024/02/22 08:41:33;;;;;;;10.05;4.63;;;;;;;11.09;81.94;98954.94;4884328;29;20056;-95
2024/02/22 08:44:05;;;;;;;9.63;4.70;;;;;;;10.87;81.17;98881.00;4885113;29;20501;-96
2024/02/22 08:46:31;;;;;;;7.45;4.40;;;;;;;10.78;80.91;98875.94;4886224;29;20049;-93
2024/02/22 08:48:57;;;;;;;6.90;3.92;;;;;;;11.21;80.89;98889.84;4885736;29;20060;-93
2024/02/22 08:51:25;;;;;;;8.45;4.68;;;;;;;11.14;79.87;98857.22;4885260;29;20049;-96
2024/02/22 08:53:52;;;;;;;9.00;4.57;;;;;;;11.31;78.59;98886.91;4880849;29;20097;-95
2024/02/22 08:56:18;;;;;;;8.20;4.43;;;;;;;11.48;79.38;98923.69;4884382;29;20048;-96
2024/02/22 08:58:45;;;;;;;10.27;4.60;;;;;;;11.09;80.85;98907.03;4884603;29;20048;-93
2024/02/22 09:01:11;;;;;;;8.65;4.45;;;;;;;10.90;82.55;98907.53;4883400;29;20049;-92
2024/02/22 09:03:40;;;;;;;11.98;5.18;;;;;;;10.56;83.13;98864.09;4884003;29;20144;-92
2024/02/22 09:06:06;;;;;;;9.73;5.07;;;;;;;11.18;81.42;98920.09;4882052;29;20080;-95
2024/02/22 09:08:32;;;;;;;8.95;4.85;;;;;;;11.17;82.32;98929.00;4883565;29;20094;-95
2024/02/22 09:10:58;;;;;;;12.23;5.13;;;;;;;10.79;83.62;98852.88;4883171;29;20049;-94
2024/02/22 09:13:24;;;;;;;11.40;5.40;;;;;;;11.05;83.73;98910.69;4883277;29;20041;-95
2024/02/22 09:15:51;;;;;;;9.68;6.22;;;;;;;10.88;83.90;98842.84;4880643;29;20454;-92
2024/02/22 09:18:18;;;;;;;9.35;5.15;;;;;;;11.19;83.43;98879.28;4881986;29;20041;-94
2024/02/22 09:20:44;;;;;;;12.13;5.10;;;;;;;11.24;82.93;98888.00;4882503;29;20044;-96
2024/02/22 09:23:10;;;;;;;13.40;5.80;;;;;;;10.96;83.37;98869.25;4883146;29;20043;-93
2024/02/22 09:25:36;;;;;;;10.63;5.25;;;;;;;11.07;84.56;98898.22;4882312;29;20140;-93
2024/02/22 09:28:03;;;;;;;13.73;6.38;;;;;;;11.19;84.65;98871.28;4885667;29;20049;-94
2024/02/22 09:30:29;;;;;;;12.00;5.78;;;;;;;11.08;84.01;98818.38;4881393;29;20045;-96
2024/02/22 09:32:57;;;;;;;12.82;6.47;;;;;;;11.21;84.37;98872.13;4882723;29;20405;-96
2024/02/22 09:35:23;;;;;;;9.75;5.65;;;;;;;11.14;84.28;98835.91;4882412;29;20045;-96
2024/02/22 09:37:52;;;;;;;11.55;6.20;;;;;;;11.19;83.93;98796.75;4882933;29;20307;-96
2024/02/22 09:40:21;;;;;;;12.60;5.90;;;;;;;11.64;83.68;98864.66;4883214;29;20052;-96
2024/02/22 09:42:47;;;;;;;12.85;6.07;;;;;;;11.65;82.26;98840.66;4887014;29;20041;-96
2024/02/22 09:45:14;;;;;;;9.50;5.32;;;;;;;11.43;82.54;98789.84;4890818;29;20049;-95
2024/02/22 09:47:40;;;;;;;10.93;5.72;;;;;;;11.50;81.96;98787.84;4897042;29;20029;-93
2024/02/22 09:50:10;;;;;;;11.43;5.75;;;;;;;11.75;82.66;98859.00;4891424;29;20052;-94
2024/02/22 09:52:36;;;;;;;11.32;5.88;;;;;;;11.83;83.51;98855.19;4887765;29;20045;-95
2024/02/22 09:55:03;;;;;;;9.63;5.45;;;;;;;11.97;83.25;98853.91;4885549;29;20061;-96
2024/02/22 09:57:29;;;;;;;12.80;6.00;;;;;;;11.74;82.29;98786.22;4882956;29;20072;-95
2024/02/22 09:59:55;;;;;;;13.80;7.50;;;;;;;12.00;81.99;98820.06;4882258;29;20381;-94
2024/02/22 10:02:22;;;;;;;13.85;6.13;;;;;;;11.81;82.69;98826.84;4885344;29;20056;-96
2024/02/22 10:04:51;;;;;;;13.25;6.68;;;;;;;12.08;81.75;98820.69;4882601;29;20045;-94
2024/02/22 10:07:23;;;;;;;13.45;6.53;;;;;;;12.39;81.62;98850.81;4882642;29;20056;-94
2024/02/22 10:09:49;;;;;;;10.77;5.45;;;;;;;12.25;82.26;98857.47;4882204;29;20064;-92
2024/02/22 10:12:25;;;;;;;8.90;4.75;;;;;;;12.46;80.75;98847.88;4887080;29;20044;-94
2024/02/22 10:14:51;;;;;;;10.38;3.65;;;;;;;12.68;80.40;98837.34;4898404;29;20033;-94
2024/02/22 10:17:21;;;;;;;7.72;3.08;;;;;;;12.48;78.06;98792.69;4902659;29;20052;-94
2024/02/22 10:19:58;;;;;;;7.63;2.60;;;;;;;12.72;77.87;98856.78;4899856;29;20029;-95
2024/02/22 10:22:26;;;;;;;9.18;3.13;;;;;;;12.64;77.28;98810.81;4898100;29;20066;-94
2024/02/22 10:24:53;;;;;;;7.72;3.45;;;;;;;12.92;77.74;98846.31;4883565;29;20511;-94
2024/02/22 10:27:21;;;;;;;7.55;2.97;;;;;;;12.74;76.74;98786.44;4880944;29;20049;-95
2024/02/22 10:29:48;;;;;;;6.50;3.05;;;;;;;13.00;77.21;98829.13;4880787;29;20131;-92
2024/02/22 10:32:18;;;;;;;7.40;3.53;;;;;;;12.50;76.16;98764.16;4881336;29;20064;-95
2024/02/22 10:34:48;;;;;;;7.03;3.10;;;;;;;12.86;75.69;98825.19;4881200;29;20049;-95
2024/02/22 10:37:14;;;;;;;7.50;3.05;;;;;;;12.67;75.47;98824.94;4882432;29;20043;-92
2024/02/22 10:39:47;;;;;;;12.30;3.17;;;;;;;12.94;75.34;98828.41;4881253;29;20124;-95
2024/02/22 10:42:14;;;;;;;10.52;3.20;;;;;;;12.90;75.03;98802.78;4882189;29;20045;-92
2024/02/22 10:44:44;;;;;;;5.82;2.58;;;;;;;13.22;74.43;98823.88;4881609;29;20047;-95
2024/02/22 10:47:12;;;;;;;5.75;3.20;;;;;;;13.47;71.26;98826.56;4882792;29;20189;-95
2024/02/22 10:49:39;;;;;;;4.35;2.30;;;;;;;13.53;70.58;98812.94;4880168;29;20041;-96
2024/02/22 11:00:13;;;;;;;5.32;2.38;;;;;;;13.72;67.35;98807.75;4884737;29;20029;-93
2024/02/22 11:03:00;;;;;;;5.30;2.22;;;;;;;13.59;67.12;98764.63;4882749;29;20052;-93
2024/02/22 11:05:38;;;;;;;12.50;3.30;;;;;;;13.85;66.93;98770.72;4883163;29;20053;-95
2024/02/22 11:08:04;;;;;;;4.32;2.42;;;;;;;13.79;66.73;98736.22;4882707;29;20069;-92
2024/02/22 11:22:21;;;;;;;11.90;5.85;;;;;;;14.21;64.88;98757.66;4866515;29;20036;-92
2024/02/22 11:24:52;;;;;;;5.07;2.55;;;;;;;14.02;65.23;98732.63;4882263;29;20155;-96
2024/02/22 11:27:18;;;;;;;5.55;3.22;;;;;;;14.35;65.20;98762.41;4880849;29;20049;-93
2024/02/22 11:29:45;;;;;;;6.63;3.10;;;;;;;14.32;65.47;98736.66;4878993;29;20557;-93
2024/02/22 11:32:15;;;;;;;5.90;2.95;;;;;;;14.12;66.44;98712.59;4881573;29;20492;-93
2024/02/22 11:34:41;;;;;;;5.20;2.40;;;;;;;14.25;66.35;98751.25;4882418;29;20105;-94
2024/02/22 11:37:17;;;;;;;4.80;2.20;;;;;;;14.28;66.87;98756.44;4882320;29;20140;-96
2024/02/22 11:39:44;;;;;;;9.65;2.45;;;;;;;14.07;66.32;98704.72;4891045;29;20060;-96
2024/02/22 11:42:17;;;;;;;5.00;2.40;;;;;;;14.02;67.60;98706.75;4879128;29;20041;-92
2024/02/22 11:44:54;;;;;;;9.07;3.58;;;;;;;14.33;67.50;98694.72;4885832;29;20079;-93
2024/02/22 11:47:23;;;;;;;5.00;3.15;;;;;;;14.55;67.13;98748.19;4887553;29;20078;-94
2024/02/22 11:49:49;;;;;;;9.20;4.10;;;;;;;14.14;67.70;98703.56;4893180;29;20049;-94
2024/02/22 11:52:25;;;;;;;9.05;4.18;;;;;;;14.33;67.32;98716.13;4897575;29;20069;-94
2024/02/22 11:54:54;;;;;;;7.80;3.40;;;;;;;14.67;67.10;98741.47;4901775;29;20033;-91
2024/02/22 11:57:20;;;;;;;8.95;2.95;;;;;;;13.93;67.99;98665.22;4901142;29;20056;-92
2024/02/22 11:59:46;;;;;;;7.13;3.03;;;;;;;14.21;68.34;98695.28;4900259;29;20060;-90
2024/02/22 12:02:20;;;;;;;12.20;4.38;;;;;;;14.29;67.66;98658.34;4893999;29;20056;-94
2024/02/22 12:04:50;;;;;;;7.90;4.28;;;;;;;14.16;68.62;98671.38;4894711;29;20041;-95
2024/02/22 12:07:19;;;;;;;8.80;3.72;;;;;;;14.25;69.49;98710.22;4893373;29;20053;-94
2024/02/22 12:09:46;;;;;;;7.38;3.22;;;;;;;13.76;69.53;98651.69;4890165;29;20041;-93
2024/02/22 12:12:17;;;;;;;7.43;3.55;;;;;;;14.00;69.96;98665.84;4891444;29;20053;-93
2024/02/22 12:14:54;;;;;;;8.63;3.55;;;;;;;14.01;69.26;98650.66;4890518;29;19974;-96
2024/02/22 12:20:57;;;;;;;7.72;3.80;;;;;;;14.13;70.63;98683.09;4867784;29;20121;-94
2024/02/22 12:23:37;;;;;;;7.40;3.83;;;;;;;13.63;72.86;98648.66;4880878;29;20115;-93
2024/02/22 12:26:06;;;;;;;13.70;5.75;;;;;;;14.29;72.00;98709.16;4885007;29;20053;-94
2024/02/22 12:28:33;;;;;;;10.77;5.35;;;;;;;14.05;72.13;98652.25;4885640;29;20101;-95
2024/02/22 12:31:00;;;;;;;11.07;4.90;;;;;;;14.20;71.50;98656.94;4884354;29;20516;-93
2024/02/22 12:33:33;;;;;;;;;;;;;;;14.52;71.44;98695.66;4884394;29;20485;-95
2024/02/22 12:36:03;;;;;;;7.63;4.05;;;;;;;14.34;71.30;98665.25;4884149;29;19923;-94
2024/02/22 12:38:33;;;;;;;6.25;3.88;;;;;;;14.68;70.85;98681.63;4874405;29;20073;-93
2024/02/22 12:40:59;;;;;;;6.30;3.38;;;;;;;14.29;70.80;98621.78;4885042;29;20114;-93
2024/02/22 12:43:28;;;;;;;5.70;3.67;;;;;;;14.41;70.51;98636.41;4908582;29;20132;-92
2024/02/22 12:45:55;;;;;;;7.22;3.83;;;;;;;14.60;70.23;98643.66;4882536;29;20041;-95
2024/02/22 12:48:28;;;;;;;7.25;3.40;;;;;;;14.57;70.13;98616.09;4891017;29;20072;-91
2024/02/22 12:51:02;;;;;;;7.45;3.83;;;;;;;14.48;70.01;98602.22;4887384;29;20045;-93
2024/02/22 12:53:31;;;;;;;7.40;3.33;;;;;;;14.48;69.94;98600.41;4886460;29;20494;-90
2024/02/22 12:55:57;;;;;;;6.25;3.15;;;;;;;14.37;70.70;98598.22;4883733;29;20045;-91
2024/02/22 12:58:24;;;;;;;6.82;3.92;;;;;;;14.66;70.40;98638.00;4883902;29;20069;-95
2024/02/22 13:01:01;;;;;;;7.55;3.95;;;;;;;14.52;69.51;98593.97;4895772;29;20076;-94
2024/02/22 13:03:45;;;;;;;7.53;3.63;;;;;;;14.81;69.74;98620.38;4899253;29;20136;-93
2024/02/22 13:06:13;;;;;;;6.95;3.35;;;;;;;14.58;69.06;98542.03;4900309;29;20120;-92
2024/02/22 13:08:42;;;;;;;5.85;4.05;;;;;;;14.69;69.12;98587.88;4885877;29;20049;-93
2024/02/22 13:11:14;;;;;;;6.20;3.50;;;;;;;14.68;69.21;98588.84;4884967;29;20068;-94
2024/02/22 13:13:46;;;;;;;7.43;3.40;;;;;;;14.52;67.95;98528.91;4883413;29;20076;-94
2024/02/22 13:16:13;;;;;;;4.72;3.58;;;;;;;14.78;68.62;98594.63;4882764;29;20056;-93
2024/02/22 13:18:42;;;;;;;6.47;3.85;;;;;;;14.47;67.79;98509.53;4882409;29;20049;-94
2024/02/22 13:21:18;;;;;;;6.50;3.63;;;;;;;14.69;67.13;98515.63;4880753;29;20081;-94
2024/02/22 13:23:45;;;;;;;6.88;3.42;;;;;;;14.70;65.82;98505.78;4880635;29;20048;-92
2024/02/22 13:26:16;;;;;;;5.50;2.85;;;;;;;14.98;64.91;98570.47;4881133;29;20501;-93
2024/02/22 13:28:50;;;;;;;7.05;3.35;;;;;;;14.67;64.95;98514.81;4881379;29;20040;-92
2024/02/22 13:31:27;;;;;;;6.80;3.17;;;;;;;14.67;66.55;98513.97;4878186;29;20057;-94
2024/02/22 13:33:54;;;;;;;9.88;3.95;;;;;;;14.31;67.45;98517.38;4879530;29;20045;-91
2024/02/22 13:36:28;;;;;;;6.13;3.17;;;;;;;14.30;67.03;98515.66;4881754;29;20045;-92
2024/02/22 13:38:58;;;;;;;7.10;3.10;;;;;;;14.24;66.93;98494.53;4873032;29;20101;-92
2024/02/22 13:41:26;;;;;;;7.22;3.55;;;;;;;14.02;67.23;98487.50;4874682;29;20395;-93
2024/02/22 13:44:07;;;;;;;9.15;3.65;;;;;;;14.45;68.19;98555.06;4879941;29;20051;-92
2024/02/22 13:46:33;;;;;;;5.30;2.95;;;;;;;14.30;65.90;98529.91;4879160;29;20493;-92
2024/02/22 13:49:05;;;;;;;4.30;2.10;;;;;;;14.05;63.68;98478.47;4889026;29;20120;-94
2024/02/22 13:52:06;;;;;;;3.58;2.00;;;;;;;14.39;61.11;98531.28;4876405;29;20057;-93
2024/02/22 13:54:34;;;;;;;7.43;2.88;;;;;;;14.11;60.63;98464.81;4881491;29;20104;-94
2024/02/22 13:57:04;;;;;;;7.45;2.08;;;;;;;14.15;59.32;98498.50;4882220;29;20489;-95
2024/02/22 13:59:40;;;;;;;3.03;1.75;;;;;;;14.11;58.10;98484.41;4879823;29;20396;-94
2024/02/22 14:02:17;;;;;;;2.40;1.27;;;;;;;14.18;57.41;98477.84;4877086;29;20090;-94
2024/02/22 14:04:46;;;;;;;4.85;1.50;;;;;;;14.54;57.34;98490.41;4874387;29;20053;-94
2024/02/22 14:07:22;;;;;;;2.95;1.25;;;;;;;14.82;56.62;98510.56;4879938;29;20137;-93
2024/02/22 14:09:58;;;;;;;6.82;2.05;;;;;;;14.49;56.72;98459.50;4880534;29;20053;-95
2024/02/22 14:12:37;;;;;;;11.10;1.98;;;;;;;14.66;56.96;98482.78;4881100;29;20045;-94
2024/02/22 14:15:07;;;;;;;6.70;1.73;;;;;;;14.95;57.37;98502.78;4875668;29;20143;-95
2024/02/22 14:17:34;;;;;;;3.03;1.27;;;;;;;14.65;57.46;98467.66;4888218;29;20037;-95
2024/02/22 14:20:00;;;;;;;6.40;1.42;;;;;;;14.79;57.44;98502.69;4884327;29;20053;-93
2024/02/22 14:22:35;;;;;;;2.03;1.15;;;;;;;14.53;58.42;98450.34;4884022;29;20044;-94
2024/02/22 14:25:22;;;;;;;5.05;1.55;;;;;;;14.69;57.47;98431.78;4880761;29;20049;-94
2024/02/22 14:27:53;;;;;;;2.47;1.05;;;;;;;15.09;57.36;98467.28;4885248;29;20045;-96
2024/02/22 14:30:44;;;;;;;3.95;1.50;;;;;;;14.77;57.27;98397.50;4874518;29;20048;-94
2024/02/22 14:33:23;;;;;;;3.40;1.90;;;;;;;15.25;57.02;98464.72;4881199;29;20069;-96
2024/02/22 14:36:08;;;;;;;;;;;;;;;15.06;56.82;98460.28;4880973;29;20068;-96
2024/02/22 14:38:53;;;;;;;3.65;1.52;;;;;;;14.98;56.82;98425.88;4881859;29;20401;-92
2024/02/22 14:41:26;;;;;;;3.55;1.20;;;;;;;14.71;58.27;98403.16;4880735;29;20041;-96
2024/02/22 14:43:57;;;;;;;;;;;;;;;14.80;58.46;98456.22;4887342;29;20044;-95
2024/02/22 14:46:25;;;;;;;4.07;1.40;;;;;;;14.63;59.01;98446.34;4879086;29;19927;-93
2024/02/22 14:48:57;;;;;;;5.60;1.90;;;;;;;14.41;59.60;98433.09;4880575;29;20048;-96
2024/02/22 14:51:39;;;;;;;3.47;1.77;;;;;;;14.03;59.99;98409.06;4882653;29;20049;-95
2024/02/22 14:54:07;;;;;;;3.40;1.35;;;;;;;14.00;59.42;98403.84;4878818;29;20089;-94
2024/02/22 14:56:50;;;;;;;4.68;1.98;;;;;;;13.94;60.22;98425.50;4881783;29;20053;-95
2024/02/22 14:59:16;;;;;;;3.28;1.63;;;;;;;14.07;59.93;98434.69;4881478;29;20521;-92
2024/02/22 15:01:46;;;;;;;3.08;1.35;;;;;;;14.01;60.39;98440.34;4883486;29;20126;-94
2024/02/22 15:04:53;;;;;;;5.25;1.52;;;;;;;13.50;59.67;98372.28;4877769;29;20021;-96
2024/02/22 15:07:40;;;;;;;2.92;1.45;;;;;;;13.89;60.32;98441.75;4898609;29;20152;-96
2024/02/22 15:10:18;;;;;;;3.78;1.55;;;;;;;13.93;59.50;98434.47;4881145;29;20140;-96
2024/02/22 15:13:07;;;;;;;4.57;1.83;;;;;;;14.03;60.13;98443.81;4879649;29;20045;-95
2024/02/22 15:15:46;;;;;;;4.15;2.10;;;;;;;13.89;60.94;98440.88;4883032;29;20049;-96
2024/02/22 15:18:17;;;;;;;6.50;2.58;;;;;;;13.78;60.59;98395.94;4882684;29;20041;-96
2024/02/22 15:20:48;;;;;;;3.00;1.75;;;;;;;13.63;61.10;98380.63;4881378;29;20049;-94
2024/02/22 15:23:14;;;;;;;5.10;2.33;;;;;;;13.91;61.43;98442.56;4885668;29;20053;-96
2024/02/22 15:26:01;;;;;;;4.05;1.98;;;;;;;13.90;62.42;98440.84;4883454;29;20049;-96
2024/02/22 15:28:34;;;;;;;4.05;1.77;;;;;;;13.56;62.74;98356.84;4865513;29;20481;-96
2024/02/22 15:31:30;;;;;;;5.82;2.40;;;;;;;13.97;63.51;98422.69;4880887;29;20048;-95
2024/02/22 15:37:17;;;;;;;6.85;2.72;;;;;;;13.52;66.94;98360.59;4868605;29;20053;-95
2024/02/22 15:40:07;;;;;;;12.18;3.63;;;;;;;13.50;67.61;98346.44;4872124;29;20045;-95
2024/02/22 15:43:17;;;;;;;8.60;3.13;;;;;;;13.81;68.61;98408.28;4881494;29;20049;-95
2024/02/22 15:46:37;;;;;;;6.53;2.90;;;;;;;13.78;68.84;98422.66;4886554;29;20045;-93
2024/02/22 15:49:22;;;;;;;7.88;3.03;;;;;;;13.23;68.67;98331.63;4821696;29;20074;-95
2024/02/22 15:52:07;;;;;;;5.35;2.30;;;;;;;13.66;68.31;98402.75;4837784;29;20050;-95
2024/02/22 15:55:02;;;;;;;8.68;2.92;;;;;;;13.66;68.36;98407.19;4823981;29;20117;-95
2024/02/22 15:57:49;;;;;;;6.88;2.95;;;;;;;13.63;69.02;98402.84;4814407;29;20454;-96
2024/02/22 16:00:22;;;;;;;6.82;2.97;;;;;;;13.63;69.45;98393.97;4827778;29;20054;-96
2024/02/22 16:02:48;;;;;;;8.98;4.07;;;;;;;13.25;70.16;98353.78;4815720;29;20133;-94
2024/02/22 16:05:29;;;;;;;6.80;3.08;;;;;;;13.52;70.33;98386.44;4828975;29;20054;-94
2024/02/22 16:08:06;;;;;;;8.35;4.40;;;;;;;13.42;70.64;98387.78;4811581;29;20116;-95
2024/02/22 16:10:44;;;;;;;8.50;2.88;;;;;;;13.19;71.06;98389.66;4809678;29;20047;-94
2024/02/22 16:13:39;;;;;;;4.65;2.70;;;;;;;13.23;70.71;98377.91;4824726;29;20117;-93
2024/02/22 16:16:24;;;;;;;5.90;2.53;;;;;;;13.20;69.95;98383.38;4810980;29;20046;-95
2024/02/22 16:19:11;;;;;;;7.50;2.58;;;;;;;12.76;69.87;98323.94;4821459;29;20061;-94
2024/02/22 16:21:55;;;;;;;5.03;2.85;;;;;;;13.10;70.02;98374.03;4804407;29;20046;-95
2024/02/22 16:24:29;;;;;;;7.38;3.53;;;;;;;12.97;70.40;98375.50;4813983;29;20050;-96
2024/02/22 16:27:22;;;;;;;7.28;3.10;;;;;;;12.88;70.23;98364.31;4851193;29;20090;-94
2024/02/22 16:30:13;;;;;;;8.77;3.72;;;;;;;12.78;70.92;98372.75;4867806;29;20125;-95
2024/02/22 16:36:01;;;;;;;5.28;2.60;;;;;;;12.73;70.43;98365.81;4837096;29;20050;-95
2024/02/22 16:38:41;;;;;;;6.05;2.22;;;;;;;12.44;70.47;98321.69;4867865;29;20049;-96
2024/02/22 16:41:28;;;;;;;4.93;2.33;;;;;;;12.65;70.94;98367.06;4872472;29;20058;-94
2024/02/22 16:44:00;;;;;;;6.75;2.65;;;;;;;12.59;71.32;98370.00;4867223;29;20049;-92
2024/02/22 16:46:26;;;;;;;3.88;2.20;;;;;;;12.32;71.90;98340.88;4881881;29;20049;-92
2024/02/22 16:49:02;;;;;;;7.18;3.35;;;;;;;12.34;71.65;98336.34;4882664;29;20553;-92
2024/02/22 16:51:32;;;;;;;6.22;2.92;;;;;;;12.04;71.77;98285.16;4876944;29;20053;-95
2024/02/22 16:54:10;;;;;;;8.23;3.13;;;;;;;12.16;72.43;98321.09;4870262;29;20041;-95
2024/02/22 16:56:37;;;;;;;5.18;2.33;;;;;;;12.04;72.92;98306.47;4869469;29;20048;-91
2024/02/22 16:59:05;;;;;;;6.65;3.05;;;;;;;11.85;72.69;98269.00;4867640;29;20048;-93
2024/02/22 17:01:32;;;;;;;5.13;2.67;;;;;;;11.97;72.99;98292.53;4864766;29;20041;-93
2024/02/22 17:04:01;;;;;;;5.22;3.08;;;;;;;12.29;73.01;98351.66;4863654;29;20124;-93
2024/02/22 17:06:29;;;;;;;6.03;2.63;;;;;;;12.32;72.87;98355.06;4863198;29;20073;-92
2024/02/22 17:09:07;;;;;;;12.77;3.72;;;;;;;12.36;72.94;98350.47;4863636;29;20045;-93
2024/02/22 17:11:41;;;;;;;9.25;4.55;;;;;;;12.28;73.28;98341.91;4862392;29;20140;-91
2024/02/22 17:14:08;;;;;;;9.88;4.47;;;;;;;12.00;73.34;98297.72;4858808;29;20144;-91
2024/02/22 17:16:37;;;;;;;6.55;2.97;;;;;;;12.06;73.51;98312.63;4845803;29;20050;-93
2024/02/22 17:19:03;;;;;;;4.38;2.65;;;;;;;12.30;73.65;98345.41;4863056;29;20038;-93
2024/02/22 17:21:29;;;;;;;5.75;2.83;;;;;;;12.19;73.95;98339.59;4863808;29;20045;-93
2024/02/22 17:23:56;;;;;;;4.63;2.20;;;;;;;12.29;74.28;98354.31;4861706;29;20525;-93
2024/02/22 17:26:24;;;;;;;11.55;3.10;;;;;;;12.13;74.90;98325.63;4873607;29;20152;-95
2024/02/22 17:29:02;;;;;;;8.52;3.40;;;;;;;12.25;75.38;98347.38;4879964;29;20117;-92
2024/02/22 17:31:28;;;;;;;6.57;2.83;;;;;;;11.96;75.63;98276.59;4879402;29;20041;-92
2024/02/22 17:33:57;;;;;;;5.63;3.03;;;;;;;12.32;76.88;98348.88;4881003;29;20585;-92
2024/02/22 17:36:31;;;;;;;5.03;2.78;;;;;;;12.32;77.11;98341.72;4882702;29;20041;-92
2024/02/22 17:38:57;;;;;;;5.07;2.80;;;;;;;11.87;77.96;98269.81;4881042;29;20045;-92
2024/02/22 17:41:25;;;;;;;6.57;2.83;;;;;;;12.19;78.17;98339.59;4889533;29;20049;-88
2024/02/22 17:43:52;;;;;;;5.70;2.95;;;;;;;12.04;78.87;98320.66;4889554;29;20044;-92
2024/02/22 17:46:23;;;;;;;6.70;3.13;;;;;;;12.19;79.09;98351.16;4891090;29;20139;-90
2024/02/22 17:48:50;;;;;;;6.50;3.03;;;;;;;12.23;79.09;98351.88;4889198;29;20045;-89
2024/02/22 17:51:17;;;;;;;5.95;2.78;;;;;;;12.28;79.00;98345.44;4884439;29;20041;-93
2024/02/22 17:53:46;;;;;;;5.93;3.10;;;;;;;12.20;79.47;98341.34;4888787;29;20069;-93
2024/02/22 17:56:15;;;;;;;5.60;2.83;;;;;;;12.08;80.21;98327.59;4882614;29;20053;-92
2024/02/22 17:58:50;;;;;;;8.07;3.15;;;;;;;12.05;81.23;98334.84;4884622;29;20041;-92
2024/02/22 18:01:25;;;;;;;6.00;2.95;;;;;;;12.06;81.27;98332.13;4881963;29;20044;-90
2024/02/22 18:03:52;;;;;;;4.85;2.85;;;;;;;12.02;82.03;98325.19;4882335;29;20053;-90